Lower Earley, United Kingdom
Current Conditions -  °F | °C
As of 2:50 PM on Friday 19 Dec 2014 (Local Time) from EGLF Reporting Station
Few Clouds Few Clouds  
Wind Chill: 43°   Ceiling: Unl
Heat Index: 48°   Visibility: 6mi
Dew Point: 36°   Wind: 12mph
Humidity: 62%   Direction: 270°W
Pressure: 30.06"   Gusts: NA
Location:  51.43°N, 0.92°W
Report Text: EGLF 191450Z 27010KT 250V310 9999 FEW040 09/02 Q1018
Loading
Personal Weather Stations






























Interactive Weather Map New forecast layout! Learn more

10-Day Weather Forecast

Advertisements
Track Severe Weather on mobile